sensor_id;sensor_type;location;lat;lon;timestamp;P1;durP1;ratioP1;P2;durP2;ratioP2
6053;SDS011;3055;50.886;14.814;2023-01-08T00:00:09;12.13;;;10.10;;
6053;SDS011;3055;50.886;14.814;2023-01-08T00:02:37;11.63;;;10.43;;
6053;SDS011;3055;50.886;14.814;2023-01-08T00:05:06;13.93;;;11.40;;
6053;SDS011;3055;50.886;14.814;2023-01-08T00:07:35;12.20;;;10.53;;
6053;SDS011;3055;50.886;14.814;2023-01-08T00:10:02;11.97;;;10.73;;
6053;SDS011;3055;50.886;14.814;2023-01-08T00:12:30;12.23;;;10.93;;
6053;SDS011;3055;50.886;14.814;2023-01-08T00:14:58;10.77;;;9.67;;
6053;SDS011;3055;50.886;14.814;2023-01-08T00:17:25;12.67;;;11.23;;
6053;SDS011;3055;50.886;14.814;2023-01-08T00:19:52;11.70;;;10.20;;
6053;SDS011;3055;50.886;14.814;2023-01-08T00:22:21;11.90;;;10.30;;
6053;SDS011;3055;50.886;14.814;2023-01-08T00:24:48;12.37;;;11.07;;
6053;SDS011;3055;50.886;14.814;2023-01-08T00:27:15;13.23;;;10.97;;
6053;SDS011;3055;50.886;14.814;2023-01-08T00:29:42;11.83;;;10.17;;
6053;SDS011;3055;50.886;14.814;2023-01-08T00:32:09;13.43;;;10.80;;
6053;SDS011;3055;50.886;14.814;2023-01-08T00:34:36;11.97;;;10.77;;
6053;SDS011;3055;50.886;14.814;2023-01-08T00:37:03;14.90;;;12.13;;
6053;SDS011;3055;50.886;14.814;2023-01-08T00:39:31;12.20;;;10.77;;
6053;SDS011;3055;50.886;14.814;2023-01-08T00:41:58;12.53;;;11.23;;
6053;SDS011;3055;50.886;14.814;2023-01-08T00:44:25;12.47;;;11.17;;
6053;SDS011;3055;50.886;14.814;2023-01-08T00:46:52;13.00;;;11.67;;
6053;SDS011;3055;50.886;14.814;2023-01-08T00:49:19;12.97;;;11.37;;
6053;SDS011;3055;50.886;14.814;2023-01-08T00:51:46;13.10;;;11.20;;
6053;SDS011;3055;50.886;14.814;2023-01-08T00:54:13;13.57;;;12.13;;
6053;SDS011;3055;50.886;14.814;2023-01-08T00:56:41;14.50;;;12.87;;
6053;SDS011;3055;50.886;14.814;2023-01-08T00:59:08;13.10;;;11.70;;
6053;SDS011;3055;50.886;14.814;2023-01-08T01:01:36;13.20;;;10.53;;
6053;SDS011;3055;50.886;14.814;2023-01-08T01:04:03;14.13;;;11.83;;
6053;SDS011;3055;50.886;14.814;2023-01-08T01:06:30;13.70;;;11.97;;
6053;SDS011;3055;50.886;14.814;2023-01-08T01:08:57;13.23;;;11.57;;
6053;SDS011;3055;50.886;14.814;2023-01-08T01:11:25;16.43;;;12.50;;
6053;SDS011;3055;50.886;14.814;2023-01-08T01:13:55;16.27;;;12.80;;
6053;SDS011;3055;50.886;14.814;2023-01-08T01:16:22;15.63;;;12.70;;
6053;SDS011;3055;50.886;14.814;2023-01-08T01:18:50;14.77;;;12.30;;
6053;SDS011;3055;50.886;14.814;2023-01-08T01:21:19;15.87;;;12.57;;
6053;SDS011;3055;50.886;14.814;2023-01-08T01:23:48;15.47;;;12.93;;
6053;SDS011;3055;50.886;14.814;2023-01-08T01:26:16;13.90;;;12.50;;
6053;SDS011;3055;50.886;14.814;2023-01-08T01:28:45;15.30;;;13.27;;
6053;SDS011;3055;50.886;14.814;2023-01-08T01:31:15;15.37;;;12.93;;
6053;SDS011;3055;50.886;14.814;2023-01-08T01:33:43;14.40;;;12.17;;
6053;SDS011;3055;50.886;14.814;2023-01-08T01:36:11;15.03;;;13.43;;
6053;SDS011;3055;50.886;14.814;2023-01-08T01:38:41;15.67;;;13.47;;
6053;SDS011;3055;50.886;14.814;2023-01-08T01:41:10;14.07;;;12.27;;
6053;SDS011;3055;50.886;14.814;2023-01-08T01:43:44;15.90;;;12.90;;
6053;SDS011;3055;50.886;14.814;2023-01-08T01:46:17;15.30;;;12.87;;
6053;SDS011;3055;50.886;14.814;2023-01-08T01:48:52;14.60;;;13.07;;
6053;SDS011;3055;50.886;14.814;2023-01-08T01:51:24;15.33;;;13.70;;
6053;SDS011;3055;50.886;14.814;2023-01-08T01:53:58;14.50;;;12.80;;
6053;SDS011;3055;50.886;14.814;2023-01-08T01:56:26;15.23;;;13.57;;
6053;SDS011;3055;50.886;14.814;2023-01-08T01:58:53;14.60;;;13.10;;
6053;SDS011;3055;50.886;14.814;2023-01-08T02:01:22;15.43;;;13.27;;
6053;SDS011;3055;50.886;14.814;2023-01-08T02:03:50;14.20;;;12.67;;
6053;SDS011;3055;50.886;14.814;2023-01-08T02:06:19;15.67;;;13.70;;
6053;SDS011;3055;50.886;14.814;2023-01-08T02:08:59;14.87;;;13.20;;
6053;SDS011;3055;50.886;14.814;2023-01-08T02:11:29;16.10;;;13.73;;
6053;SDS011;3055;50.886;14.814;2023-01-08T02:14:04;14.17;;;12.70;;
6053;SDS011;3055;50.886;14.814;2023-01-08T02:16:38;16.93;;;13.33;;
6053;SDS011;3055;50.886;14.814;2023-01-08T02:19:13;16.17;;;13.73;;
6053;SDS011;3055;50.886;14.814;2023-01-08T02:21:51;14.80;;;13.23;;
6053;SDS011;3055;50.886;14.814;2023-01-08T02:24:29;15.40;;;13.33;;
6053;SDS011;3055;50.886;14.814;2023-01-08T02:27:09;15.10;;;13.10;;
6053;SDS011;3055;50.886;14.814;2023-01-08T02:29:39;15.20;;;13.33;;
6053;SDS011;3055;50.886;14.814;2023-01-08T02:32:06;15.37;;;13.77;;
6053;SDS011;3055;50.886;14.814;2023-01-08T02:34:33;16.80;;;14.13;;
6053;SDS011;3055;50.886;14.814;2023-01-08T02:37:00;17.60;;;14.83;;
6053;SDS011;3055;50.886;14.814;2023-01-08T02:39:30;17.00;;;13.73;;
6053;SDS011;3055;50.886;14.814;2023-01-08T02:42:06;15.00;;;13.40;;
6053;SDS011;3055;50.886;14.814;2023-01-08T02:44:47;17.40;;;12.87;;
6053;SDS011;3055;50.886;14.814;2023-01-08T02:47:22;16.40;;;13.43;;
6053;SDS011;3055;50.886;14.814;2023-01-08T02:49:55;15.67;;;13.73;;
6053;SDS011;3055;50.886;14.814;2023-01-08T02:52:29;17.47;;;13.03;;
6053;SDS011;3055;50.886;14.814;2023-01-08T02:54:58;16.50;;;13.53;;
6053;SDS011;3055;50.886;14.814;2023-01-08T02:57:29;17.57;;;13.80;;
6053;SDS011;3055;50.886;14.814;2023-01-08T02:59:58;17.83;;;13.90;;
6053;SDS011;3055;50.886;14.814;2023-01-08T03:02:25;17.13;;;14.90;;
6053;SDS011;3055;50.886;14.814;2023-01-08T03:04:58;17.07;;;14.20;;
6053;SDS011;3055;50.886;14.814;2023-01-08T03:07:30;17.20;;;14.97;;
6053;SDS011;3055;50.886;14.814;2023-01-08T03:09:58;16.87;;;13.97;;
6053;SDS011;3055;50.886;14.814;2023-01-08T03:12:28;16.27;;;13.47;;
6053;SDS011;3055;50.886;14.814;2023-01-08T03:15:08;18.43;;;14.43;;
6053;SDS011;3055;50.886;14.814;2023-01-08T03:17:40;17.43;;;14.30;;
6053;SDS011;3055;50.886;14.814;2023-01-08T03:20:12;18.73;;;15.53;;
6053;SDS011;3055;50.886;14.814;2023-01-08T03:22:42;18.90;;;15.70;;
6053;SDS011;3055;50.886;14.814;2023-01-08T03:25:13;18.43;;;15.83;;
6053;SDS011;3055;50.886;14.814;2023-01-08T03:27:43;18.33;;;15.10;;
6053;SDS011;3055;50.886;14.814;2023-01-08T03:30:12;16.57;;;14.57;;
6053;SDS011;3055;50.886;14.814;2023-01-08T03:32:41;19.93;;;15.90;;
6053;SDS011;3055;50.886;14.814;2023-01-08T03:35:11;19.40;;;15.53;;
6053;SDS011;3055;50.886;14.814;2023-01-08T03:37:44;18.60;;;15.33;;
6053;SDS011;3055;50.886;14.814;2023-01-08T03:40:16;17.03;;;14.83;;
6053;SDS011;3055;50.886;14.814;2023-01-08T03:42:48;17.23;;;14.83;;
6053;SDS011;3055;50.886;14.814;2023-01-08T03:45:15;17.43;;;15.60;;
6053;SDS011;3055;50.886;14.814;2023-01-08T03:47:43;20.10;;;15.33;;
6053;SDS011;3055;50.886;14.814;2023-01-08T03:50:13;18.93;;;15.43;;
6053;SDS011;3055;50.886;14.814;2023-01-08T03:52:42;18.27;;;14.70;;
6053;SDS011;3055;50.886;14.814;2023-01-08T03:55:09;16.53;;;14.30;;
6053;SDS011;3055;50.886;14.814;2023-01-08T03:57:36;18.03;;;14.33;;
6053;SDS011;3055;50.886;14.814;2023-01-08T04:00:05;17.93;;;15.37;;
6053;SDS011;3055;50.886;14.814;2023-01-08T04:02:33;17.27;;;15.00;;
6053;SDS011;3055;50.886;14.814;2023-01-08T04:05:00;18.97;;;15.43;;
6053;SDS011;3055;50.886;14.814;2023-01-08T04:07:27;18.70;;;14.83;;
6053;SDS011;3055;50.886;14.814;2023-01-08T04:09:54;16.70;;;14.80;;
6053;SDS011;3055;50.886;14.814;2023-01-08T04:12:21;17.50;;;14.37;;
6053;SDS011;3055;50.886;14.814;2023-01-08T04:14:49;18.60;;;15.37;;
6053;SDS011;3055;50.886;14.814;2023-01-08T04:17:17;20.50;;;16.43;;
6053;SDS011;3055;50.886;14.814;2023-01-08T04:19:44;20.03;;;16.30;;
6053;SDS011;3055;50.886;14.814;2023-01-08T04:22:11;18.73;;;15.57;;
6053;SDS011;3055;50.886;14.814;2023-01-08T04:24:38;18.40;;;15.17;;
6053;SDS011;3055;50.886;14.814;2023-01-08T04:27:05;20.20;;;16.80;;
6053;SDS011;3055;50.886;14.814;2023-01-08T04:29:32;21.53;;;16.00;;
6053;SDS011;3055;50.886;14.814;2023-01-08T04:31:59;19.87;;;16.07;;
6053;SDS011;3055;50.886;14.814;2023-01-08T04:34:28;20.63;;;17.07;;
6053;SDS011;3055;50.886;14.814;2023-01-08T04:36:55;20.40;;;15.93;;
6053;SDS011;3055;50.886;14.814;2023-01-08T04:39:22;20.50;;;16.93;;
6053;SDS011;3055;50.886;14.814;2023-01-08T04:41:49;24.93;;;17.60;;
6053;SDS011;3055;50.886;14.814;2023-01-08T04:44:16;22.27;;;17.17;;
6053;SDS011;3055;50.886;14.814;2023-01-08T04:46:43;20.73;;;16.73;;
6053;SDS011;3055;50.886;14.814;2023-01-08T04:49:10;20.20;;;16.47;;
6053;SDS011;3055;50.886;14.814;2023-01-08T04:51:38;21.23;;;16.93;;
6053;SDS011;3055;50.886;14.814;2023-01-08T04:54:05;21.33;;;16.57;;
6053;SDS011;3055;50.886;14.814;2023-01-08T04:56:32;19.77;;;16.50;;
6053;SDS011;3055;50.886;14.814;2023-01-08T04:58:59;21.47;;;16.57;;
6053;SDS011;3055;50.886;14.814;2023-01-08T05:01:27;20.47;;;16.50;;
6053;SDS011;3055;50.886;14.814;2023-01-08T05:03:54;21.00;;;15.63;;
6053;SDS011;3055;50.886;14.814;2023-01-08T05:06:22;23.67;;;16.57;;
6053;SDS011;3055;50.886;14.814;2023-01-08T05:08:51;19.37;;;15.03;;
6053;SDS011;3055;50.886;14.814;2023-01-08T05:11:18;19.53;;;15.93;;
6053;SDS011;3055;50.886;14.814;2023-01-08T05:13:46;19.17;;;14.77;;
6053;SDS011;3055;50.886;14.814;2023-01-08T05:16:13;20.43;;;16.43;;
6053;SDS011;3055;50.886;14.814;2023-01-08T05:18:41;22.67;;;16.53;;
6053;SDS011;3055;50.886;14.814;2023-01-08T05:21:08;19.63;;;15.43;;
6053;SDS011;3055;50.886;14.814;2023-01-08T05:23:35;21.43;;;15.73;;
6053;SDS011;3055;50.886;14.814;2023-01-08T05:26:04;18.63;;;15.33;;
6053;SDS011;3055;50.886;14.814;2023-01-08T05:28:32;17.07;;;14.60;;
6053;SDS011;3055;50.886;14.814;2023-01-08T05:30:59;19.93;;;15.97;;
6053;SDS011;3055;50.886;14.814;2023-01-08T05:33:26;18.53;;;15.23;;
6053;SDS011;3055;50.886;14.814;2023-01-08T05:35:53;18.77;;;14.70;;
6053;SDS011;3055;50.886;14.814;2023-01-08T05:38:20;19.97;;;15.37;;
6053;SDS011;3055;50.886;14.814;2023-01-08T05:40:50;19.30;;;14.87;;
6053;SDS011;3055;50.886;14.814;2023-01-08T05:43:19;17.50;;;15.23;;
6053;SDS011;3055;50.886;14.814;2023-01-08T05:45:46;19.23;;;15.50;;
6053;SDS011;3055;50.886;14.814;2023-01-08T05:48:13;19.67;;;14.80;;
6053;SDS011;3055;50.886;14.814;2023-01-08T05:50:40;15.30;;;13.50;;
6053;SDS011;3055;50.886;14.814;2023-01-08T05:53:07;17.43;;;15.57;;
6053;SDS011;3055;50.886;14.814;2023-01-08T05:55:35;19.43;;;14.87;;
6053;SDS011;3055;50.886;14.814;2023-01-08T05:58:02;17.40;;;14.97;;
6053;SDS011;3055;50.886;14.814;2023-01-08T06:00:32;19.67;;;14.67;;
6053;SDS011;3055;50.886;14.814;2023-01-08T06:03:00;19.87;;;14.67;;
6053;SDS011;3055;50.886;14.814;2023-01-08T06:05:28;18.40;;;14.73;;
6053;SDS011;3055;50.886;14.814;2023-01-08T06:07:56;17.40;;;14.17;;
6053;SDS011;3055;50.886;14.814;2023-01-08T06:10:23;18.13;;;14.47;;
6053;SDS011;3055;50.886;14.814;2023-01-08T06:12:51;21.90;;;14.67;;
6053;SDS011;3055;50.886;14.814;2023-01-08T06:15:18;17.77;;;14.63;;
6053;SDS011;3055;50.886;14.814;2023-01-08T06:17:46;16.93;;;13.83;;
6053;SDS011;3055;50.886;14.814;2023-01-08T06:20:13;19.40;;;14.60;;
6053;SDS011;3055;50.886;14.814;2023-01-08T06:22:40;19.83;;;15.23;;
6053;SDS011;3055;50.886;14.814;2023-01-08T06:25:07;17.83;;;14.73;;
6053;SDS011;3055;50.886;14.814;2023-01-08T06:27:35;19.63;;;14.43;;
6053;SDS011;3055;50.886;14.814;2023-01-08T06:30:02;20.53;;;15.63;;
6053;SDS011;3055;50.886;14.814;2023-01-08T06:32:29;18.57;;;14.27;;
6053;SDS011;3055;50.886;14.814;2023-01-08T06:34:58;17.87;;;14.23;;
6053;SDS011;3055;50.886;14.814;2023-01-08T06:37:25;17.30;;;14.07;;
6053;SDS011;3055;50.886;14.814;2023-01-08T06:39:52;17.30;;;13.63;;
6053;SDS011;3055;50.886;14.814;2023-01-08T06:42:19;17.17;;;13.93;;
6053;SDS011;3055;50.886;14.814;2023-01-08T06:44:46;18.13;;;14.83;;
6053;SDS011;3055;50.886;14.814;2023-01-08T06:47:13;17.93;;;14.13;;
6053;SDS011;3055;50.886;14.814;2023-01-08T06:49:40;20.27;;;15.33;;
6053;SDS011;3055;50.886;14.814;2023-01-08T06:52:08;17.57;;;14.57;;
6053;SDS011;3055;50.886;14.814;2023-01-08T06:54:35;18.23;;;14.93;;
6053;SDS011;3055;50.886;14.814;2023-01-08T06:57:02;19.33;;;15.20;;
6053;SDS011;3055;50.886;14.814;2023-01-08T06:59:29;18.40;;;14.10;;
6053;SDS011;3055;50.886;14.814;2023-01-08T07:01:56;17.53;;;14.53;;
6053;SDS011;3055;50.886;14.814;2023-01-08T07:04:23;16.83;;;13.80;;
6053;SDS011;3055;50.886;14.814;2023-01-08T07:06:50;18.90;;;15.17;;
6053;SDS011;3055;50.886;14.814;2023-01-08T07:09:19;20.83;;;15.07;;
6053;SDS011;3055;50.886;14.814;2023-01-08T07:11:46;18.03;;;13.87;;
6053;SDS011;3055;50.886;14.814;2023-01-08T07:14:13;19.13;;;14.83;;
6053;SDS011;3055;50.886;14.814;2023-01-08T07:16:40;15.90;;;13.00;;
6053;SDS011;3055;50.886;14.814;2023-01-08T07:19:07;18.23;;;14.43;;
6053;SDS011;3055;50.886;14.814;2023-01-08T07:21:34;16.93;;;13.73;;
6053;SDS011;3055;50.886;14.814;2023-01-08T07:24:01;16.13;;;14.17;;
6053;SDS011;3055;50.886;14.814;2023-01-08T07:26:30;17.60;;;14.37;;
6053;SDS011;3055;50.886;14.814;2023-01-08T07:28:57;17.03;;;13.90;;
6053;SDS011;3055;50.886;14.814;2023-01-08T07:31:24;16.57;;;13.83;;
6053;SDS011;3055;50.886;14.814;2023-01-08T07:33:51;16.20;;;13.97;;
6053;SDS011;3055;50.886;14.814;2023-01-08T07:36:18;18.23;;;14.23;;
6053;SDS011;3055;50.886;14.814;2023-01-08T07:38:46;17.77;;;13.70;;
6053;SDS011;3055;50.886;14.814;2023-01-08T07:41:14;16.13;;;13.13;;
6053;SDS011;3055;50.886;14.814;2023-01-08T07:43:43;19.10;;;13.93;;
6053;SDS011;3055;50.886;14.814;2023-01-08T07:46:12;18.03;;;14.10;;
6053;SDS011;3055;50.886;14.814;2023-01-08T07:48:39;19.63;;;13.87;;
6053;SDS011;3055;50.886;14.814;2023-01-08T07:51:06;19.43;;;14.33;;
6053;SDS011;3055;50.886;14.814;2023-01-08T07:53:35;19.30;;;13.77;;
6053;SDS011;3055;50.886;14.814;2023-01-08T07:56:03;19.77;;;14.33;;
6053;SDS011;3055;50.886;14.814;2023-01-08T07:58:31;18.47;;;13.27;;
6053;SDS011;3055;50.886;14.814;2023-01-08T08:00:59;18.90;;;14.40;;
6053;SDS011;3055;50.886;14.814;2023-01-08T08:03:27;18.47;;;13.70;;
6053;SDS011;3055;50.886;14.814;2023-01-08T08:05:54;18.60;;;13.77;;
6053;SDS011;3055;50.886;14.814;2023-01-08T08:08:21;19.23;;;14.60;;
6053;SDS011;3055;50.886;14.814;2023-01-08T08:10:48;20.30;;;13.70;;
6053;SDS011;3055;50.886;14.814;2023-01-08T08:13:15;20.20;;;14.97;;
6053;SDS011;3055;50.886;14.814;2023-01-08T08:15:42;20.30;;;14.77;;
6053;SDS011;3055;50.886;14.814;2023-01-08T08:18:12;21.70;;;15.03;;
6053;SDS011;3055;50.886;14.814;2023-01-08T08:20:39;19.77;;;15.30;;
6053;SDS011;3055;50.886;14.814;2023-01-08T08:23:06;18.77;;;14.23;;
6053;SDS011;3055;50.886;14.814;2023-01-08T08:25:34;21.67;;;14.87;;
6053;SDS011;3055;50.886;14.814;2023-01-08T08:28:03;19.10;;;14.60;;
6053;SDS011;3055;50.886;14.814;2023-01-08T08:30:31;21.47;;;15.53;;
6053;SDS011;3055;50.886;14.814;2023-01-08T08:33:00;21.47;;;14.37;;
6053;SDS011;3055;50.886;14.814;2023-01-08T08:35:30;23.73;;;15.60;;
6053;SDS011;3055;50.886;14.814;2023-01-08T08:37:57;21.07;;;16.07;;
6053;SDS011;3055;50.886;14.814;2023-01-08T08:40:25;19.60;;;15.33;;
6053;SDS011;3055;50.886;14.814;2023-01-08T08:42:54;20.40;;;15.17;;
6053;SDS011;3055;50.886;14.814;2023-01-08T08:45:21;22.13;;;15.40;;
6053;SDS011;3055;50.886;14.814;2023-01-08T08:47:49;22.37;;;15.07;;
6053;SDS011;3055;50.886;14.814;2023-01-08T08:50:17;21.50;;;15.70;;
6053;SDS011;3055;50.886;14.814;2023-01-08T08:52:46;18.50;;;14.70;;
6053;SDS011;3055;50.886;14.814;2023-01-08T08:55:14;23.37;;;15.70;;
6053;SDS011;3055;50.886;14.814;2023-01-08T08:57:42;24.00;;;16.17;;
6053;SDS011;3055;50.886;14.814;2023-01-08T09:00:10;22.10;;;15.17;;
6053;SDS011;3055;50.886;14.814;2023-01-08T09:02:38;24.20;;;16.30;;
6053;SDS011;3055;50.886;14.814;2023-01-08T09:05:05;21.63;;;15.20;;
6053;SDS011;3055;50.886;14.814;2023-01-08T09:07:32;22.57;;;16.30;;
6053;SDS011;3055;50.886;14.814;2023-01-08T09:10:01;19.77;;;14.37;;
6053;SDS011;3055;50.886;14.814;2023-01-08T09:12:28;24.90;;;16.73;;
6053;SDS011;3055;50.886;14.814;2023-01-08T09:14:55;22.53;;;15.93;;
6053;SDS011;3055;50.886;14.814;2023-01-08T09:17:22;21.97;;;15.97;;
6053;SDS011;3055;50.886;14.814;2023-01-08T09:19:50;22.77;;;14.97;;
6053;SDS011;3055;50.886;14.814;2023-01-08T09:22:17;20.57;;;15.50;;
6053;SDS011;3055;50.886;14.814;2023-01-08T09:24:45;23.77;;;15.97;;
6053;SDS011;3055;50.886;14.814;2023-01-08T09:27:13;24.17;;;16.23;;
6053;SDS011;3055;50.886;14.814;2023-01-08T09:29:40;22.13;;;14.93;;
6053;SDS011;3055;50.886;14.814;2023-01-08T09:32:08;20.10;;;15.27;;
6053;SDS011;3055;50.886;14.814;2023-01-08T09:34:35;24.40;;;16.27;;
6053;SDS011;3055;50.886;14.814;2023-01-08T09:37:02;23.33;;;16.07;;
6053;SDS011;3055;50.886;14.814;2023-01-08T09:39:29;22.83;;;16.57;;
6053;SDS011;3055;50.886;14.814;2023-01-08T09:41:57;21.40;;;15.93;;
6053;SDS011;3055;50.886;14.814;2023-01-08T09:44:32;22.67;;;16.67;;
6053;SDS011;3055;50.886;14.814;2023-01-08T09:47:03;23.83;;;17.47;;
6053;SDS011;3055;50.886;14.814;2023-01-08T09:49:40;19.87;;;16.00;;
6053;SDS011;3055;50.886;14.814;2023-01-08T09:52:10;23.40;;;15.70;;
6053;SDS011;3055;50.886;14.814;2023-01-08T09:54:38;23.57;;;15.80;;
6053;SDS011;3055;50.886;14.814;2023-01-08T09:57:08;20.10;;;15.43;;
6053;SDS011;3055;50.886;14.814;2023-01-08T09:59:39;19.53;;;15.00;;
6053;SDS011;3055;50.886;14.814;2023-01-08T10:02:10;21.20;;;15.47;;
6053;SDS011;3055;50.886;14.814;2023-01-08T10:04:40;21.60;;;15.33;;
6053;SDS011;3055;50.886;14.814;2023-01-08T10:07:10;19.37;;;14.77;;
6053;SDS011;3055;50.886;14.814;2023-01-08T10:09:43;22.17;;;15.57;;
6053;SDS011;3055;50.886;14.814;2023-01-08T10:12:10;22.53;;;15.90;;
6053;SDS011;3055;50.886;14.814;2023-01-08T10:14:39;24.07;;;15.67;;
6053;SDS011;3055;50.886;14.814;2023-01-08T10:17:16;24.17;;;16.13;;
6053;SDS011;3055;50.886;14.814;2023-01-08T10:19:51;21.40;;;16.40;;
6053;SDS011;3055;50.886;14.814;2023-01-08T10:22:20;24.03;;;16.23;;
6053;SDS011;3055;50.886;14.814;2023-01-08T10:24:48;22.60;;;15.70;;
6053;SDS011;3055;50.886;14.814;2023-01-08T10:27:18;22.33;;;16.07;;
6053;SDS011;3055;50.886;14.814;2023-01-08T10:29:50;20.80;;;15.73;;
6053;SDS011;3055;50.886;14.814;2023-01-08T10:32:18;21.93;;;15.73;;
6053;SDS011;3055;50.886;14.814;2023-01-08T10:34:52;24.33;;;17.20;;
6053;SDS011;3055;50.886;14.814;2023-01-08T10:37:22;22.53;;;16.50;;
6053;SDS011;3055;50.886;14.814;2023-01-08T10:39:52;22.07;;;16.80;;
6053;SDS011;3055;50.886;14.814;2023-01-08T10:42:20;22.90;;;16.60;;
6053;SDS011;3055;50.886;14.814;2023-01-08T10:44:55;21.00;;;16.43;;
6053;SDS011;3055;50.886;14.814;2023-01-08T10:47:25;22.43;;;15.37;;
6053;SDS011;3055;50.886;14.814;2023-01-08T10:49:55;21.23;;;17.00;;
6053;SDS011;3055;50.886;14.814;2023-01-08T10:52:27;21.00;;;16.60;;
6053;SDS011;3055;50.886;14.814;2023-01-08T10:54:57;22.13;;;16.77;;
6053;SDS011;3055;50.886;14.814;2023-01-08T10:57:38;21.87;;;15.67;;
6053;SDS011;3055;50.886;14.814;2023-01-08T11:02:55;20.60;;;15.83;;
6053;SDS011;3055;50.886;14.814;2023-01-08T11:05:31;21.10;;;15.80;;
6053;SDS011;3055;50.886;14.814;2023-01-08T11:07:59;21.60;;;15.30;;
6053;SDS011;3055;50.886;14.814;2023-01-08T11:10:29;20.53;;;14.30;;
6053;SDS011;3055;50.886;14.814;2023-01-08T11:13:00;21.57;;;16.30;;
6053;SDS011;3055;50.886;14.814;2023-01-08T11:15:31;20.90;;;14.57;;
6053;SDS011;3055;50.886;14.814;2023-01-08T11:20:46;21.10;;;15.00;;
6053;SDS011;3055;50.886;14.814;2023-01-08T11:23:15;20.90;;;14.70;;
6053;SDS011;3055;50.886;14.814;2023-01-08T11:25:46;20.10;;;14.27;;
6053;SDS011;3055;50.886;14.814;2023-01-08T11:28:20;20.67;;;13.73;;
6053;SDS011;3055;50.886;14.814;2023-01-08T11:30:57;22.23;;;15.40;;
6053;SDS011;3055;50.886;14.814;2023-01-08T11:33:31;21.27;;;15.57;;
6053;SDS011;3055;50.886;14.814;2023-01-08T11:36:01;20.00;;;15.20;;
6053;SDS011;3055;50.886;14.814;2023-01-08T11:38:33;23.40;;;16.47;;
6053;SDS011;3055;50.886;14.814;2023-01-08T11:41:02;19.67;;;14.73;;
6053;SDS011;3055;50.886;14.814;2023-01-08T11:43:39;19.10;;;15.03;;
6053;SDS011;3055;50.886;14.814;2023-01-08T11:46:20;21.40;;;15.77;;
6053;SDS011;3055;50.886;14.814;2023-01-08T11:49:04;18.63;;;14.10;;
6053;SDS011;3055;50.886;14.814;2023-01-08T11:51:55;21.27;;;15.23;;
6053;SDS011;3055;50.886;14.814;2023-01-08T11:54:45;30.93;;;22.47;;
6053;SDS011;3055;50.886;14.814;2023-01-08T11:57:23;35.07;;;23.47;;
6053;SDS011;3055;50.886;14.814;2023-01-08T12:00:09;24.23;;;16.37;;
6053;SDS011;3055;50.886;14.814;2023-01-08T12:02:51;25.40;;;17.10;;
6053;SDS011;3055;50.886;14.814;2023-01-08T12:05:29;26.67;;;17.40;;
6053;SDS011;3055;50.886;14.814;2023-01-08T12:08:04;22.47;;;14.27;;
6053;SDS011;3055;50.886;14.814;2023-01-08T12:10:35;27.03;;;17.03;;
6053;SDS011;3055;50.886;14.814;2023-01-08T12:13:15;23.43;;;15.87;;
6053;SDS011;3055;50.886;14.814;2023-01-08T12:15:52;24.50;;;16.57;;
6053;SDS011;3055;50.886;14.814;2023-01-08T12:18:37;23.00;;;16.10;;
6053;SDS011;3055;50.886;14.814;2023-01-08T12:21:25;25.40;;;16.23;;
6053;SDS011;3055;50.886;14.814;2023-01-08T12:24:03;27.00;;;18.77;;
6053;SDS011;3055;50.886;14.814;2023-01-08T12:26:41;25.30;;;17.03;;
6053;SDS011;3055;50.886;14.814;2023-01-08T12:29:24;26.20;;;20.33;;
6053;SDS011;3055;50.886;14.814;2023-01-08T12:32:21;27.17;;;17.53;;
6053;SDS011;3055;50.886;14.814;2023-01-08T12:34:56;27.70;;;18.47;;
6053;SDS011;3055;50.886;14.814;2023-01-08T12:37:29;25.57;;;15.77;;
6053;SDS011;3055;50.886;14.814;2023-01-08T12:40:02;24.80;;;17.33;;
6053;SDS011;3055;50.886;14.814;2023-01-08T12:42:37;28.97;;;18.10;;
6053;SDS011;3055;50.886;14.814;2023-01-08T12:45:12;27.37;;;18.03;;
6053;SDS011;3055;50.886;14.814;2023-01-08T12:47:42;27.27;;;17.93;;
6053;SDS011;3055;50.886;14.814;2023-01-08T12:50:21;25.10;;;17.80;;
6053;SDS011;3055;50.886;14.814;2023-01-08T12:52:59;23.80;;;16.63;;
6053;SDS011;3055;50.886;14.814;2023-01-08T12:55:36;27.40;;;18.83;;
6053;SDS011;3055;50.886;14.814;2023-01-08T12:58:11;24.70;;;18.27;;
6053;SDS011;3055;50.886;14.814;2023-01-08T13:00:50;28.43;;;18.43;;
6053;SDS011;3055;50.886;14.814;2023-01-08T13:03:23;27.20;;;17.13;;
6053;SDS011;3055;50.886;14.814;2023-01-08T13:06:02;25.20;;;17.63;;
6053;SDS011;3055;50.886;14.814;2023-01-08T13:08:32;29.10;;;18.03;;
6053;SDS011;3055;50.886;14.814;2023-01-08T13:11:01;25.37;;;17.33;;
6053;SDS011;3055;50.886;14.814;2023-01-08T13:13:29;25.10;;;16.43;;
6053;SDS011;3055;50.886;14.814;2023-01-08T13:16:05;25.00;;;15.53;;
6053;SDS011;3055;50.886;14.814;2023-01-08T13:18:50;24.40;;;16.60;;
6053;SDS011;3055;50.886;14.814;2023-01-08T13:21:27;23.97;;;15.77;;
6053;SDS011;3055;50.886;14.814;2023-01-08T13:24:04;23.70;;;15.73;;
6053;SDS011;3055;50.886;14.814;2023-01-08T13:26:46;21.93;;;15.43;;
6053;SDS011;3055;50.886;14.814;2023-01-08T13:29:34;23.90;;;15.60;;
6053;SDS011;3055;50.886;14.814;2023-01-08T13:32:04;20.80;;;14.50;;
6053;SDS011;3055;50.886;14.814;2023-01-08T13:34:59;24.90;;;15.33;;
6053;SDS011;3055;50.886;14.814;2023-01-08T13:37:29;22.80;;;15.40;;
6053;SDS011;3055;50.886;14.814;2023-01-08T13:39:56;23.10;;;15.70;;
6053;SDS011;3055;50.886;14.814;2023-01-08T13:42:23;20.23;;;15.23;;
6053;SDS011;3055;50.886;14.814;2023-01-08T13:44:56;22.80;;;15.37;;
6053;SDS011;3055;50.886;14.814;2023-01-08T13:47:27;20.53;;;14.67;;
6053;SDS011;3055;50.886;14.814;2023-01-08T13:49:56;22.80;;;15.50;;
6053;SDS011;3055;50.886;14.814;2023-01-08T13:52:31;22.10;;;15.30;;
6053;SDS011;3055;50.886;14.814;2023-01-08T13:55:02;20.83;;;14.80;;
6053;SDS011;3055;50.886;14.814;2023-01-08T13:57:33;24.17;;;14.97;;
6053;SDS011;3055;50.886;14.814;2023-01-08T14:00:05;22.97;;;14.67;;
6053;SDS011;3055;50.886;14.814;2023-01-08T14:02:41;22.17;;;14.87;;
6053;SDS011;3055;50.886;14.814;2023-01-08T14:05:18;21.07;;;14.73;;
6053;SDS011;3055;50.886;14.814;2023-01-08T14:07:49;20.43;;;15.07;;
6053;SDS011;3055;50.886;14.814;2023-01-08T14:10:16;22.50;;;15.93;;
6053;SDS011;3055;50.886;14.814;2023-01-08T14:12:44;22.93;;;15.07;;
6053;SDS011;3055;50.886;14.814;2023-01-08T14:15:19;23.77;;;16.30;;
6053;SDS011;3055;50.886;14.814;2023-01-08T14:17:49;22.63;;;15.00;;
6053;SDS011;3055;50.886;14.814;2023-01-08T14:23:09;25.13;;;15.53;;
6053;SDS011;3055;50.886;14.814;2023-01-08T14:25:37;21.70;;;15.40;;
6053;SDS011;3055;50.886;14.814;2023-01-08T14:28:13;20.80;;;15.23;;
6053;SDS011;3055;50.886;14.814;2023-01-08T14:30:46;22.70;;;16.80;;
6053;SDS011;3055;50.886;14.814;2023-01-08T14:33:14;22.53;;;15.33;;
6053;SDS011;3055;50.886;14.814;2023-01-08T14:35:42;18.63;;;15.23;;
6053;SDS011;3055;50.886;14.814;2023-01-08T14:38:11;20.23;;;14.87;;
6053;SDS011;3055;50.886;14.814;2023-01-08T14:40:41;22.50;;;15.90;;
6053;SDS011;3055;50.886;14.814;2023-01-08T14:43:14;21.87;;;15.83;;
6053;SDS011;3055;50.886;14.814;2023-01-08T14:45:44;20.50;;;15.37;;
6053;SDS011;3055;50.886;14.814;2023-01-08T14:48:15;23.10;;;16.53;;
6053;SDS011;3055;50.886;14.814;2023-01-08T14:50:52;22.77;;;15.67;;
6053;SDS011;3055;50.886;14.814;2023-01-08T14:53:27;21.60;;;15.27;;
6053;SDS011;3055;50.886;14.814;2023-01-08T14:55:58;22.33;;;15.83;;
6053;SDS011;3055;50.886;14.814;2023-01-08T14:58:27;20.97;;;15.30;;